sensor_id;sensor_type;location;lat;lon;timestamp;pressure;altitude;pressure_sealevel;temperature;humidity
13434;BME280;6789;47.678;9.158;2022-11-15T00:00:21;96583.50;;;7.73;100.00
13434;BME280;6789;47.678;9.158;2022-11-15T00:05:13;96591.31;;;7.73;100.00
13434;BME280;6789;47.678;9.158;2022-11-15T00:10:05;96581.09;;;7.71;100.00
13434;BME280;6789;47.678;9.158;2022-11-15T00:14:57;96585.72;;;7.69;100.00
13434;BME280;6789;47.678;9.158;2022-11-15T00:19:49;96589.09;;;7.76;100.00
13434;BME280;6789;47.678;9.158;2022-11-15T00:24:41;96584.66;;;7.77;100.00
13434;BME280;6789;47.678;9.158;2022-11-15T00:29:32;96583.91;;;7.70;100.00
13434;BME280;6789;47.678;9.158;2022-11-15T00:34:24;96569.06;;;7.70;100.00
13434;BME280;6789;47.678;9.158;2022-11-15T00:39:16;96574.03;;;7.78;100.00
13434;BME280;6789;47.678;9.158;2022-11-15T00:44:07;96562.53;;;7.85;100.00
13434;BME280;6789;47.678;9.158;2022-11-15T00:48:59;96562.94;;;7.82;100.00
13434;BME280;6789;47.678;9.158;2022-11-15T00:53:51;96562.94;;;7.82;100.00
13434;BME280;6789;47.678;9.158;2022-11-15T00:58:42;96555.00;;;7.71;100.00
13434;BME280;6789;47.678;9.158;2022-11-15T01:03:35;96552.19;;;7.73;100.00
13434;BME280;6789;47.678;9.158;2022-11-15T01:08:27;96564.47;;;7.66;100.00
13434;BME280;6789;47.678;9.158;2022-11-15T01:13:19;96555.00;;;7.71;100.00
13434;BME280;6789;47.678;9.158;2022-11-15T01:18:11;96559.84;;;7.68;100.00
13434;BME280;6789;47.678;9.158;2022-11-15T01:23:03;96551.84;;;7.63;100.00
13434;BME280;6789;47.678;9.158;2022-11-15T01:27:54;96552.47;;;7.58;100.00
13434;BME280;6789;47.678;9.158;2022-11-15T01:32:46;96545.06;;;7.55;100.00
13434;BME280;6789;47.678;9.158;2022-11-15T01:37:38;96536.72;;;7.40;100.00
13434;BME280;6789;47.678;9.158;2022-11-15T01:42:29;96546.56;;;7.38;100.00
13434;BME280;6789;47.678;9.158;2022-11-15T01:47:37;96537.09;;;7.44;100.00
13434;BME280;6789;47.678;9.158;2022-11-15T01:52:34;96530.47;;;7.41;100.00
13434;BME280;6789;47.678;9.158;2022-11-15T01:57:27;96522.16;;;7.26;100.00
13434;BME280;6789;47.678;9.158;2022-11-15T02:02:20;96518.34;;;7.22;100.00
13434;BME280;6789;47.678;9.158;2022-11-15T02:07:16;96521.59;;;7.11;100.00
13434;BME280;6789;47.678;9.158;2022-11-15T02:12:11;96522.09;;;6.96;100.00
13434;BME280;6789;47.678;9.158;2022-11-15T02:33:00;96491.69;;;6.77;100.00
13434;BME280;6789;47.678;9.158;2022-11-15T02:38:01;96488.97;;;6.59;100.00
13434;BME280;6789;47.678;9.158;2022-11-15T02:43:06;96482.66;;;6.73;100.00
13434;BME280;6789;47.678;9.158;2022-11-15T02:48:18;96476.09;;;6.64;100.00
13434;BME280;6789;47.678;9.158;2022-11-15T02:53:14;96479.06;;;6.74;100.00
13434;BME280;6789;47.678;9.158;2022-11-15T03:09:08;96477.59;;;6.91;100.00
13434;BME280;6789;47.678;9.158;2022-11-15T03:14:25;96474.34;;;6.95;100.00
13434;BME280;6789;47.678;9.158;2022-11-15T03:19:36;96473.00;;;6.86;100.00
13434;BME280;6789;47.678;9.158;2022-11-15T03:24:33;96465.31;;;6.98;100.00
13434;BME280;6789;47.678;9.158;2022-11-15T03:29:51;96458.34;;;6.92;100.00
13434;BME280;6789;47.678;9.158;2022-11-15T03:34:52;96455.88;;;7.03;100.00
13434;BME280;6789;47.678;9.158;2022-11-15T03:39:45;96457.94;;;6.95;100.00
13434;BME280;6789;47.678;9.158;2022-11-15T03:49:59;96448.06;;;7.03;100.00
13434;BME280;6789;47.678;9.158;2022-11-15T03:54:56;96461.69;;;7.05;100.00
13434;BME280;6789;47.678;9.158;2022-11-15T03:59:48;96460.25;;;7.15;100.00
13434;BME280;6789;47.678;9.158;2022-11-15T04:04:40;96452.59;;;7.14;100.00
13434;BME280;6789;47.678;9.158;2022-11-15T04:09:32;96450.97;;;7.19;100.00
13434;BME280;6789;47.678;9.158;2022-11-15T04:14:23;96443.84;;;7.08;100.00
13434;BME280;6789;47.678;9.158;2022-11-15T04:19:15;96428.50;;;7.25;100.00
13434;BME280;6789;47.678;9.158;2022-11-15T04:24:25;96438.94;;;7.18;100.00
13434;BME280;6789;47.678;9.158;2022-11-15T04:29:17;96436.97;;;7.14;100.00
13434;BME280;6789;47.678;9.158;2022-11-15T04:34:26;96441.84;;;7.04;100.00
13434;BME280;6789;47.678;9.158;2022-11-15T04:39:18;96431.38;;;7.10;100.00
13434;BME280;6789;47.678;9.158;2022-11-15T04:44:10;96424.56;;;7.09;100.00
13434;BME280;6789;47.678;9.158;2022-11-15T04:49:02;96432.97;;;7.11;100.00
13434;BME280;6789;47.678;9.158;2022-11-15T04:53:53;96434.25;;;7.03;100.00
13434;BME280;6789;47.678;9.158;2022-11-15T04:58:45;96432.25;;;6.98;100.00
13434;BME280;6789;47.678;9.158;2022-11-15T05:03:43;96424.28;;;6.93;100.00
13434;BME280;6789;47.678;9.158;2022-11-15T05:09:08;96423.06;;;6.89;100.00
13434;BME280;6789;47.678;9.158;2022-11-15T05:14:18;96424.28;;;6.87;100.00
13434;BME280;6789;47.678;9.158;2022-11-15T05:25:48;96423.91;;;6.83;100.00
13434;BME280;6789;47.678;9.158;2022-11-15T05:31:06;96421.09;;;6.85;100.00
13434;BME280;6789;47.678;9.158;2022-11-15T05:36:44;96407.03;;;6.86;100.00
13434;BME280;6789;47.678;9.158;2022-11-15T05:42:04;96406.03;;;6.87;100.00
13434;BME280;6789;47.678;9.158;2022-11-15T05:47:17;96405.81;;;6.95;100.00
13434;BME280;6789;47.678;9.158;2022-11-15T05:52:29;96395.75;;;6.98;100.00
13434;BME280;6789;47.678;9.158;2022-11-15T05:57:37;96393.53;;;7.02;100.00
13434;BME280;6789;47.678;9.158;2022-11-15T06:02:43;96397.31;;;7.06;100.00
13434;BME280;6789;47.678;9.158;2022-11-15T06:07:59;96407.34;;;7.02;100.00
13434;BME280;6789;47.678;9.158;2022-11-15T06:13:05;96396.28;;;7.13;100.00
13434;BME280;6789;47.678;9.158;2022-11-15T06:18:12;96404.44;;;7.16;100.00
13434;BME280;6789;47.678;9.158;2022-11-15T06:23:18;96407.88;;;7.17;100.00
13434;BME280;6789;47.678;9.158;2022-11-15T06:28:24;96402.50;;;7.12;100.00
13434;BME280;6789;47.678;9.158;2022-11-15T06:33:32;96396.44;;;7.18;100.00
13434;BME280;6789;47.678;9.158;2022-11-15T06:38:39;96391.16;;;7.24;100.00
13434;BME280;6789;47.678;9.158;2022-11-15T06:43:46;96386.09;;;7.29;100.00
13434;BME280;6789;47.678;9.158;2022-11-15T06:49:07;96392.53;;;7.33;100.00
13434;BME280;6789;47.678;9.158;2022-11-15T06:54:13;96391.81;;;7.44;100.00
13434;BME280;6789;47.678;9.158;2022-11-15T06:59:19;96390.44;;;7.42;100.00
13434;BME280;6789;47.678;9.158;2022-11-15T07:04:24;96376.91;;;7.51;100.00
13434;BME280;6789;47.678;9.158;2022-11-15T07:09:32;96384.50;;;7.59;100.00
13434;BME280;6789;47.678;9.158;2022-11-15T07:14:38;96385.00;;;7.68;100.00
13434;BME280;6789;47.678;9.158;2022-11-15T07:19:44;96384.72;;;7.76;100.00
13434;BME280;6789;47.678;9.158;2022-11-15T07:24:50;96388.88;;;7.83;100.00
13434;BME280;6789;47.678;9.158;2022-11-15T07:29:59;96384.81;;;7.87;100.00
13434;BME280;6789;47.678;9.158;2022-11-15T07:35:10;96385.91;;;7.97;100.00
13434;BME280;6789;47.678;9.158;2022-11-15T07:40:18;96377.44;;;8.02;100.00
13434;BME280;6789;47.678;9.158;2022-11-15T07:45:58;96378.75;;;8.11;100.00
13434;BME280;6789;47.678;9.158;2022-11-15T07:51:19;96392.34;;;8.19;100.00
13434;BME280;6789;47.678;9.158;2022-11-15T07:56:31;96387.97;;;8.31;100.00
13434;BME280;6789;47.678;9.158;2022-11-15T08:02:02;96387.91;;;8.38;100.00
13434;BME280;6789;47.678;9.158;2022-11-15T08:07:09;96392.69;;;8.41;100.00
13434;BME280;6789;47.678;9.158;2022-11-15T08:12:16;96394.31;;;8.24;100.00
13434;BME280;6789;47.678;9.158;2022-11-15T08:17:23;96389.88;;;8.42;100.00
13434;BME280;6789;47.678;9.158;2022-11-15T08:22:29;96388.41;;;8.46;100.00
13434;BME280;6789;47.678;9.158;2022-11-15T08:27:36;96393.88;;;8.27;100.00
13434;BME280;6789;47.678;9.158;2022-11-15T08:32:49;96389.03;;;8.30;100.00
13434;BME280;6789;47.678;9.158;2022-11-15T08:37:56;96401.03;;;8.31;100.00
13434;BME280;6789;47.678;9.158;2022-11-15T08:43:03;96394.03;;;8.32;100.00
13434;BME280;6789;47.678;9.158;2022-11-15T08:48:09;96378.06;;;8.40;100.00
13434;BME280;6789;47.678;9.158;2022-11-15T08:53:16;96367.34;;;8.59;100.00
13434;BME280;6789;47.678;9.158;2022-11-15T08:58:22;96361.97;;;8.72;100.00
13434;BME280;6789;47.678;9.158;2022-11-15T09:03:29;96369.41;;;8.86;100.00
13434;BME280;6789;47.678;9.158;2022-11-15T09:08:35;96379.00;;;8.74;100.00
13434;BME280;6789;47.678;9.158;2022-11-15T09:13:45;96386.47;;;8.89;100.00
13434;BME280;6789;47.678;9.158;2022-11-15T09:18:54;96396.50;;;8.92;100.00
13434;BME280;6789;47.678;9.158;2022-11-15T09:24:00;96375.25;;;8.70;100.00
13434;BME280;6789;47.678;9.158;2022-11-15T09:29:07;96389.72;;;8.84;100.00
13434;BME280;6789;47.678;9.158;2022-11-15T09:34:14;96383.94;;;8.82;100.00
13434;BME280;6789;47.678;9.158;2022-11-15T09:39:47;96392.81;;;8.81;100.00
13434;BME280;6789;47.678;9.158;2022-11-15T09:45:32;96401.91;;;8.90;100.00
13434;BME280;6789;47.678;9.158;2022-11-15T09:50:48;96390.63;;;9.08;100.00
13434;BME280;6789;47.678;9.158;2022-11-15T09:56:04;96370.91;;;9.34;100.00
13434;BME280;6789;47.678;9.158;2022-11-15T10:01:36;96373.88;;;9.61;100.00
13434;BME280;6789;47.678;9.158;2022-11-15T10:07:19;96362.50;;;9.44;100.00
13434;BME280;6789;47.678;9.158;2022-11-15T10:12:28;96364.81;;;9.75;100.00
13434;BME280;6789;47.678;9.158;2022-11-15T10:23:30;96358.28;;;9.66;100.00
13434;BME280;6789;47.678;9.158;2022-11-15T10:28:37;96352.72;;;9.39;100.00
13434;BME280;6789;47.678;9.158;2022-11-15T10:33:43;96342.47;;;9.38;100.00
13434;BME280;6789;47.678;9.158;2022-11-15T10:59:37;96337.47;;;9.48;100.00
13434;BME280;6789;47.678;9.158;2022-11-15T11:04:51;96326.09;;;9.54;100.00
13434;BME280;6789;47.678;9.158;2022-11-15T11:10:24;96312.75;;;9.32;100.00
13434;BME280;6789;47.678;9.158;2022-11-15T11:15:31;96306.41;;;9.51;100.00
13434;BME280;6789;47.678;9.158;2022-11-15T11:20:56;96308.44;;;9.49;100.00
13434;BME280;6789;47.678;9.158;2022-11-15T11:38:21;96296.59;;;9.93;100.00
13434;BME280;6789;47.678;9.158;2022-11-15T11:44:18;96289.84;;;9.96;100.00
13434;BME280;6789;47.678;9.158;2022-11-15T11:50:03;96281.91;;;10.03;100.00
13434;BME280;6789;47.678;9.158;2022-11-15T11:55:45;96274.72;;;10.10;100.00
13434;BME280;6789;47.678;9.158;2022-11-15T12:01:44;96278.81;;;10.06;100.00
13434;BME280;6789;47.678;9.158;2022-11-15T12:07:38;96273.19;;;10.25;100.00
13434;BME280;6789;47.678;9.158;2022-11-15T12:13:06;96264.94;;;10.33;100.00
13434;BME280;6789;47.678;9.158;2022-11-15T12:18:17;96271.03;;;10.50;100.00
13434;BME280;6789;47.678;9.158;2022-11-15T12:23:38;96257.88;;;10.62;100.00
13434;BME280;6789;47.678;9.158;2022-11-15T12:28:58;96252.00;;;10.71;100.00
13434;BME280;6789;47.678;9.158;2022-11-15T12:34:40;96251.91;;;10.66;100.00
13434;BME280;6789;47.678;9.158;2022-11-15T12:52:23;96195.59;;;10.24;100.00
13434;BME280;6789;47.678;9.158;2022-11-15T12:57:39;96190.44;;;10.29;100.00
13434;BME280;6789;47.678;9.158;2022-11-15T13:02:46;96186.19;;;10.40;100.00
13434;BME280;6789;47.678;9.158;2022-11-15T13:08:35;96182.22;;;10.37;100.00
13434;BME280;6789;47.678;9.158;2022-11-15T13:13:44;96168.09;;;10.38;100.00
13434;BME280;6789;47.678;9.158;2022-11-15T13:18:54;96155.72;;;10.50;100.00
13434;BME280;6789;47.678;9.158;2022-11-15T13:24:01;96146.63;;;10.41;100.00
13434;BME280;6789;47.678;9.158;2022-11-15T13:29:18;96136.53;;;10.33;100.00
13434;BME280;6789;47.678;9.158;2022-11-15T13:34:33;96133.81;;;10.28;100.00
13434;BME280;6789;47.678;9.158;2022-11-15T13:40:28;96129.22;;;10.19;100.00
13434;BME280;6789;47.678;9.158;2022-11-15T13:45:38;96130.34;;;10.23;100.00
13434;BME280;6789;47.678;9.158;2022-11-15T13:50:45;96129.00;;;10.37;100.00
13434;BME280;6789;47.678;9.158;2022-11-15T13:55:55;96120.97;;;10.43;100.00
13434;BME280;6789;47.678;9.158;2022-11-15T14:01:18;96101.34;;;10.29;100.00
13434;BME280;6789;47.678;9.158;2022-11-15T14:06:29;96093.41;;;10.24;100.00
13434;BME280;6789;47.678;9.158;2022-11-15T14:11:37;96085.28;;;10.09;100.00
13434;BME280;6789;47.678;9.158;2022-11-15T14:17:03;96081.06;;;10.08;100.00
13434;BME280;6789;47.678;9.158;2022-11-15T14:22:36;96065.94;;;10.10;100.00
13434;BME280;6789;47.678;9.158;2022-11-15T14:33:54;96049.44;;;10.10;100.00
13434;BME280;6789;47.678;9.158;2022-11-15T14:39:03;96047.91;;;9.97;100.00
13434;BME280;6789;47.678;9.158;2022-11-15T14:44:11;96038.91;;;9.93;100.00
13434;BME280;6789;47.678;9.158;2022-11-15T14:49:33;96034.63;;;9.88;100.00
13434;BME280;6789;47.678;9.158;2022-11-15T14:54:40;96039.53;;;9.84;100.00
13434;BME280;6789;47.678;9.158;2022-11-15T14:59:56;96035.88;;;9.85;100.00
13434;BME280;6789;47.678;9.158;2022-11-15T15:05:20;96030.78;;;9.79;100.00
13434;BME280;6789;47.678;9.158;2022-11-15T15:10:41;96012.22;;;9.80;100.00
13434;BME280;6789;47.678;9.158;2022-11-15T15:15:50;96000.00;;;9.86;100.00
13434;BME280;6789;47.678;9.158;2022-11-15T15:20:59;96001.59;;;9.87;100.00
13434;BME280;6789;47.678;9.158;2022-11-15T15:26:09;95995.97;;;9.94;100.00
13434;BME280;6789;47.678;9.158;2022-11-15T15:31:39;95983.41;;;9.96;100.00
13434;BME280;6789;47.678;9.158;2022-11-15T15:37:31;95978.66;;;9.93;100.00
13434;BME280;6789;47.678;9.158;2022-11-15T15:43:19;95976.72;;;10.00;100.00
13434;BME280;6789;47.678;9.158;2022-11-15T15:48:36;95968.28;;;9.98;100.00
13434;BME280;6789;47.678;9.158;2022-11-15T15:54:27;95960.44;;;9.98;100.00
13434;BME280;6789;47.678;9.158;2022-11-15T16:00:41;95926.22;;;9.89;100.00
13434;BME280;6789;47.678;9.158;2022-11-15T16:07:16;95920.44;;;9.87;100.00
13434;BME280;6789;47.678;9.158;2022-11-15T16:12:37;95917.72;;;9.82;100.00
13434;BME280;6789;47.678;9.158;2022-11-15T16:17:59;95914.22;;;9.76;100.00
13434;BME280;6789;47.678;9.158;2022-11-15T16:23:14;95893.78;;;9.73;100.00
13434;BME280;6789;47.678;9.158;2022-11-15T16:29:24;95893.22;;;9.71;100.00
13434;BME280;6789;47.678;9.158;2022-11-15T16:35:03;95887.41;;;9.69;100.00
13434;BME280;6789;47.678;9.158;2022-11-15T16:41:05;95890.66;;;9.76;100.00
13434;BME280;6789;47.678;9.158;2022-11-15T16:46:42;95884.16;;;9.79;100.00
13434;BME280;6789;47.678;9.158;2022-11-15T16:52:05;95871.63;;;9.81;100.00
13434;BME280;6789;47.678;9.158;2022-11-15T16:58:18;95868.94;;;9.76;100.00
13434;BME280;6789;47.678;9.158;2022-11-15T17:41:53;95798.53;;;9.58;100.00
13434;BME280;6789;47.678;9.158;2022-11-15T17:47:03;95794.09;;;9.58;100.00
13434;BME280;6789;47.678;9.158;2022-11-15T17:52:31;95794.88;;;9.59;100.00
13434;BME280;6789;47.678;9.158;2022-11-15T17:58:14;95776.84;;;9.62;100.00
13434;BME280;6789;47.678;9.158;2022-11-15T18:03:58;95777.97;;;9.66;100.00
13434;BME280;6789;47.678;9.158;2022-11-15T18:16:47;95767.88;;;9.75;100.00
13434;BME280;6789;47.678;9.158;2022-11-15T18:23:09;95772.16;;;9.81;100.00
13434;BME280;6789;47.678;9.158;2022-11-15T18:28:50;95768.72;;;9.80;100.00
13434;BME280;6789;47.678;9.158;2022-11-15T18:34:10;95764.84;;;9.83;100.00
13434;BME280;6789;47.678;9.158;2022-11-15T18:40:02;95750.16;;;9.82;100.00
13434;BME280;6789;47.678;9.158;2022-11-15T18:46:08;95746.94;;;9.96;100.00
13434;BME280;6789;47.678;9.158;2022-11-15T18:51:52;95742.06;;;9.83;100.00
13434;BME280;6789;47.678;9.158;2022-11-15T18:57:34;95723.91;;;9.77;100.00
13434;BME280;6789;47.678;9.158;2022-11-15T19:02:48;95720.25;;;9.78;100.00
13434;BME280;6789;47.678;9.158;2022-11-15T19:08:26;95704.75;;;9.71;100.00
13434;BME280;6789;47.678;9.158;2022-11-15T19:14:54;95702.06;;;9.66;100.00
13434;BME280;6789;47.678;9.158;2022-11-15T19:20:35;95700.63;;;9.59;100.00
13434;BME280;6789;47.678;9.158;2022-11-15T19:26:19;95696.63;;;9.73;100.00
13434;BME280;6789;47.678;9.158;2022-11-15T19:31:40;95682.47;;;9.69;100.00
13434;BME280;6789;47.678;9.158;2022-11-15T19:37:09;95682.41;;;9.64;100.00
13434;BME280;6789;47.678;9.158;2022-11-15T19:43:05;95669.19;;;9.54;100.00
13434;BME280;6789;47.678;9.158;2022-11-15T19:48:42;95665.53;;;9.55;100.00
13434;BME280;6789;47.678;9.158;2022-11-15T19:54:07;95664.25;;;9.57;100.00
13434;BME280;6789;47.678;9.158;2022-11-15T19:59:21;95656.44;;;9.41;100.00
13434;BME280;6789;47.678;9.158;2022-11-15T20:04:44;95641.97;;;9.33;100.00
13434;BME280;6789;47.678;9.158;2022-11-15T20:09:52;95628.28;;;9.26;100.00
13434;BME280;6789;47.678;9.158;2022-11-15T20:15:18;95612.28;;;9.23;100.00
13434;BME280;6789;47.678;9.158;2022-11-15T20:20:25;95607.56;;;9.20;100.00
13434;BME280;6789;47.678;9.158;2022-11-15T20:26:06;95602.06;;;9.22;100.00
13434;BME280;6789;47.678;9.158;2022-11-15T20:31:48;95590.81;;;9.21;100.00
13434;BME280;6789;47.678;9.158;2022-11-15T20:37:17;95586.38;;;9.22;100.00
13434;BME280;6789;47.678;9.158;2022-11-15T20:42:54;95574.88;;;9.23;100.00
13434;BME280;6789;47.678;9.158;2022-11-15T20:53:29;95567.25;;;9.21;100.00
13434;BME280;6789;47.678;9.158;2022-11-15T20:58:54;95569.66;;;9.23;100.00
13434;BME280;6789;47.678;9.158;2022-11-15T21:04:33;95560.94;;;9.38;100.00
13434;BME280;6789;47.678;9.158;2022-11-15T21:10:07;95556.25;;;9.40;100.00
13434;BME280;6789;47.678;9.158;2022-11-15T21:15:44;95562.31;;;9.46;100.00
13434;BME280;6789;47.678;9.158;2022-11-15T21:21:23;95563.56;;;9.38;100.00
13434;BME280;6789;47.678;9.158;2022-11-15T21:26:45;95560.94;;;9.38;100.00
13434;BME280;6789;47.678;9.158;2022-11-15T21:32:09;95559.84;;;9.34;100.00
13434;BME280;6789;47.678;9.158;2022-11-15T21:38:27;95563.56;;;9.38;100.00
13434;BME280;6789;47.678;9.158;2022-11-15T21:44:00;95566.53;;;9.47;100.00
13434;BME280;6789;47.678;9.158;2022-11-15T21:49:52;95575.41;;;9.46;100.00
13434;BME280;6789;47.678;9.158;2022-11-15T22:02:40;95570.28;;;9.56;100.00
13434;BME280;6789;47.678;9.158;2022-11-15T22:08:09;95570.63;;;9.64;100.00
13434;BME280;6789;47.678;9.158;2022-11-15T22:13:49;95574.94;;;9.75;100.00
13434;BME280;6789;47.678;9.158;2022-11-15T22:19:27;95584.72;;;9.85;100.00
13434;BME280;6789;47.678;9.158;2022-11-15T22:24:45;95583.72;;;9.91;100.00
13434;BME280;6789;47.678;9.158;2022-11-15T22:30:13;95569.59;;;9.92;100.00
13434;BME280;6789;47.678;9.158;2022-11-15T22:35:38;95575.13;;;9.95;100.00
13434;BME280;6789;47.678;9.158;2022-11-15T22:40:56;95577.75;;;9.95;100.00
13434;BME280;6789;47.678;9.158;2022-11-15T22:46:25;95577.44;;;9.92;100.00
13434;BME280;6789;47.678;9.158;2022-11-15T22:51:58;95576.13;;;9.89;100.00
13434;BME280;6789;47.678;9.158;2022-11-15T22:57:41;95569.50;;;9.82;100.00
13434;BME280;6789;47.678;9.158;2022-11-15T23:02:55;95571.59;;;9.80;100.00
13434;BME280;6789;47.678;9.158;2022-11-15T23:07:53;95573.13;;;9.76;100.00
13434;BME280;6789;47.678;9.158;2022-11-15T23:13:09;95572.06;;;9.77;100.00
13434;BME280;6789;47.678;9.158;2022-11-15T23:18:22;95576.81;;;9.80;100.00
13434;BME280;6789;47.678;9.158;2022-11-15T23:23:42;95587.75;;;9.77;100.00
13434;BME280;6789;47.678;9.158;2022-11-15T23:29:35;95588.38;;;9.84;100.00
13434;BME280;6789;47.678;9.158;2022-11-15T23:35:17;95574.16;;;9.75;100.00
13434;BME280;6789;47.678;9.158;2022-11-15T23:40:34;95578.50;;;9.64;100.00
13434;BME280;6789;47.678;9.158;2022-11-15T23:45:49;95572.63;;;9.79;100.00
13434;BME280;6789;47.678;9.158;2022-11-15T23:51:08;95574.03;;;9.65;100.00
13434;BME280;6789;47.678;9.158;2022-11-15T23:56:22;95575.44;;;9.72;100.00
